Terminal Aerodrome Forecast
Issued by NWS Jacksonville, FL

Home | Current Version | Previous Version | Text Only | Print | Product List | Glossary On
Versions: 1 2 3 4 5 6 7 8 9 10 11 12 13 14 15 16 17 18 19 20
000
FTUS42 KJAX 281720
TAFGNV
TAF
KGNV 281720Z 2818/2918 26010KT P6SM SCT030 SCT250
     FM282300 24007KT P6SM SCT250
     FM290700 25005KT 3SM BR SCT005
     FM291100 25004KT 1/2SM FG OVC003
     FM291400 25008KT P6SM SCT030=

USA.gov is the U.S. government's official web portal to all federal, state and local government web resources and services.